Airfield :
LOGIN :

Register | Disclaimer

   EN    FR    IT 

 










Legend :    VFR   Marginal VFR   IFR   Intensive IFR   Very Intensive IFR
Visi :
Ceiling :
>= 8 km
>= 3000ft
5 to 8 km
1000 to 3000 ft
1500m to 5 km
500 to 1000 ft
800 to 1500m
200 to 500 ft
< 800m
< 200 ft
Symbols :   Thunderstorms  Fog  Heavy snow  Heavy precipitations  Wind > 20 kt
SIGMETs :     Misc.  Thunderstorms  Icing  Turbulence  Mountain Waves  Volcanic Ashes






- Airport Elevation : 112 ft
- IATA code : KIR


EIKY - Kerry Farranfore

CURRENT METAR :
  • 291100Z 27006KT 230V030 9999 -RA SCT023 06/02 Q1004 RERA

EXPIRED METARs :
  • 291030Z 23007KT 200V260 9999 -RA FEW018 BKN033 06/04 Q1004
  • 291000Z 23010KT 9999 SCT028 06/04 Q1004
  • 290900Z 21010KT 180V240 9999 -RA BKN031 04/02 Q1004

TAF TAF EIKY
Valid from the 29 at 09:00 until the 29 at 18:00 UTC


290800Z 2909/2918 24008KT 9999 BKN020
TEMPO 2909/2915 4000 -SHRA FEW018CB
BECMG 2909/2911 26015G25KT
PROB30
TEMPO 2913/2915 2000 -SHRAGS BKN007 SCT018CB
BECMG 2914/2916 23012KT
TEMPO 2916/2918 4000 -RA BKN010



MET'MAP, your aeronautical weather chart ! - Copyright ORBIFLY December 2007 - Disclaimer

ORBIFLY MET'MAP TEAM :

Programming & Development : Alexandra Zaïnal
Original concept : Baudouin d'Aumeries
Technical & hardware support : Manuel Goepfert
Assistance : Marc-Olivier Méhu




SOURCES & CREDITS :

   NOAA